McGregor, IA (52157)

11:39 PM CST on January 23, 2017 (GMT -0600)
Prairie Du Chien Municipal | | Change Station
Active Advisory: Winter Weather Advisory

Elev 659 ft 43.02 °N, 91.12 °W | Updated 24 minutes ago

Overcast
Overcast
34 °F
Feels Like 34 °F
N
0
Wind Variable Wind from North

Today
High -- | Low -- °F
--% Chance of Precip.
Yesterday
High -- | Low -- °F
Precip. -- in
Pressure 29.86 in
Visibility 10.0 miles
Clouds Overcast 1800 ft
Dew Point 31 °F
Humidity 89%
Rainfall 0.00 in
Snow Depth Not available.
7:27 AM 5:05 PM
Waning Crescent, 14% visible
METAR KPDC 240515Z AUTO 00000KT 10SM OVC018 01/00 A2986 RMK AO2 T00121004
Pressure 29.86 in
Visibility 10.0 miles
Clouds Overcast 1800 ft
Dew Point 31 °F
Humidity 89%
Rainfall 0.00 in
Snow Depth Not available.
7:27 AM 5:05 PM
Waning Crescent, 14% visible
METAR KPDC 240515Z AUTO 00000KT 10SM OVC018 01/00 A2986 RMK AO2 T00121004

Get Your Daily Forecast Email!

Thanks for signing up!

Be on the lookout for a verification email in your inbox.

You'll start receiving the daily forecast at 8 AM.

×

10-Day Weather Forecast

Almanac

Astronomy

Jan. 23, 2017 Rise Set
Actual Time
Civil Twilight
Nautical Twilight
Astronomical Twilight
Moon
Length of Visible Light
Length of Day
Tomorrow will be .
, % of the Moon is Illuminated

Today's Extremes

State Highs State Lows

Community

WunderPhotos

Upload Photos

1,962,540 photos uploaded!

WunderBlog® & News

Nearby

Air Quality

  Air Quality AQ Index Pollutant
Not available.

Snow Depth

Station Depth Elevation

Earthquake Activity

City Distance Mag. Time & Date
Minimum magnitude displayed is 2.5.

Coastal Water Temperatures

Place Temperature

Stations

Nearby Weather Stations

Station Location Temp. Windchill Dew Point Humidity Wind Precip. Elev Updated Type
                   

Watches & Warnings

Winter Weather Advisory
Issued: 9:15 PM CST Jan. 23, 2017 – National Weather Service

... Winter Weather Advisory remains in effect from noon Tuesday to
6 PM CST Wednesday...

* expect snow and sleet to develop from south to north Tuesday
afternoon... mixing with rain at times Tuesday night before
ending on Wednesday.

* The heaviest precipitation rates will occur Tuesday evening
and night... with thunder also possible.

* Total snow and sleet accumulations of 2 to 5 inches are
expected. If more sleet or rain occur than expected... amounts
could be less.

* Plan on slippery Road conditions.

Precautionary/preparedness actions...

A Winter Weather Advisory means periods of snow and sleet will
cause primarily travel difficulties. Be prepared for snow covered
roads and limited visibilities... and use caution while driving.
The latest Road conditions for the state you are calling from can
be obtained by calling 5 1 1.